Terminal Aerodrome Forecast
Issued by NWS

Home | Current Version | Previous Version | Text Only | Print | Product List | Glossary On
Versions: 1 2 3 4 5 6 7 8 9 10 11 12 13 14 15 16 17 18 19 20 21 22 23 24 25 26 27 28 29 30 31 32 33 34 35 36 37 38 39 40 41 42 43 44 45 46 47 48 49 50
000
FTUS43 KMKX 040520
TAFENW
TAF
KENW 040520Z 0406/0506 34010G20KT P6SM SHRA VCTS OVC050CB
     FM040700 36009KT P6SM VCSH SCT030 OVC050
     FM040900 33011KT P6SM VCSH OVC035
     FM041100 35013G22KT P6SM BKN025
     FM041200 35014G24KT P6SM BKN015
     FM041700 35016KT P6SM BKN035
     FM050200 36008KT P6SM SCT070=

USA.gov is the U.S. government's official web portal to all federal, state and local government web resources and services.